sensor_id;sensor_type;location;lat;lon;timestamp;P1;durP1;ratioP1;P2;durP2;ratioP2
9968;SDS011;5025;48.890;9.278;2022-11-15T00:00:26;4.30;;;3.77;;
9968;SDS011;5025;48.890;9.278;2022-11-15T00:02:53;4.37;;;4.07;;
9968;SDS011;5025;48.890;9.278;2022-11-15T00:05:18;4.20;;;3.90;;
9968;SDS011;5025;48.890;9.278;2022-11-15T00:07:44;3.80;;;3.50;;
9968;SDS011;5025;48.890;9.278;2022-11-15T00:10:09;4.20;;;3.90;;
9968;SDS011;5025;48.890;9.278;2022-11-15T00:12:35;3.37;;;3.10;;
9968;SDS011;5025;48.890;9.278;2022-11-15T00:15:00;3.73;;;3.43;;
9968;SDS011;5025;48.890;9.278;2022-11-15T00:17:25;3.73;;;3.37;;
9968;SDS011;5025;48.890;9.278;2022-11-15T00:19:51;3.73;;;3.43;;
9968;SDS011;5025;48.890;9.278;2022-11-15T00:22:16;4.87;;;3.63;;
9968;SDS011;5025;48.890;9.278;2022-11-15T00:24:41;3.83;;;3.47;;
9968;SDS011;5025;48.890;9.278;2022-11-15T00:27:07;4.30;;;3.90;;
9968;SDS011;5025;48.890;9.278;2022-11-15T00:29:32;4.10;;;3.70;;
9968;SDS011;5025;48.890;9.278;2022-11-15T00:31:58;4.47;;;4.07;;
9968;SDS011;5025;48.890;9.278;2022-11-15T00:34:23;4.50;;;3.93;;
9968;SDS011;5025;48.890;9.278;2022-11-15T00:36:48;4.13;;;3.83;;
9968;SDS011;5025;48.890;9.278;2022-11-15T00:39:14;4.23;;;3.83;;
9968;SDS011;5025;48.890;9.278;2022-11-15T00:41:39;4.13;;;3.70;;
9968;SDS011;5025;48.890;9.278;2022-11-15T00:44:04;3.67;;;3.37;;
9968;SDS011;5025;48.890;9.278;2022-11-15T00:46:30;3.63;;;3.33;;
9968;SDS011;5025;48.890;9.278;2022-11-15T00:48:55;4.17;;;3.40;;
9968;SDS011;5025;48.890;9.278;2022-11-15T00:51:20;3.70;;;3.40;;
9968;SDS011;5025;48.890;9.278;2022-11-15T00:53:45;3.30;;;3.10;;
9968;SDS011;5025;48.890;9.278;2022-11-15T00:56:11;3.40;;;3.10;;
9968;SDS011;5025;48.890;9.278;2022-11-15T00:58:36;3.27;;;3.07;;
9968;SDS011;5025;48.890;9.278;2022-11-15T01:01:09;2.90;;;2.70;;
9968;SDS011;5025;48.890;9.278;2022-11-15T01:03:36;3.30;;;3.10;;
9968;SDS011;5025;48.890;9.278;2022-11-15T01:06:03;3.10;;;2.90;;
9968;SDS011;5025;48.890;9.278;2022-11-15T01:08:29;3.00;;;2.80;;
9968;SDS011;5025;48.890;9.278;2022-11-15T01:10:54;2.87;;;2.67;;
9968;SDS011;5025;48.890;9.278;2022-11-15T01:13:19;3.00;;;2.80;;
9968;SDS011;5025;48.890;9.278;2022-11-15T01:15:45;3.10;;;2.90;;
9968;SDS011;5025;48.890;9.278;2022-11-15T01:18:10;3.40;;;3.10;;
9968;SDS011;5025;48.890;9.278;2022-11-15T01:20:42;3.10;;;2.87;;
9968;SDS011;5025;48.890;9.278;2022-11-15T01:23:07;2.90;;;2.70;;
9968;SDS011;5025;48.890;9.278;2022-11-15T01:25:33;2.97;;;2.77;;
9968;SDS011;5025;48.890;9.278;2022-11-15T01:27:58;3.33;;;3.00;;
9968;SDS011;5025;48.890;9.278;2022-11-15T01:30:23;3.47;;;3.20;;
9968;SDS011;5025;48.890;9.278;2022-11-15T01:32:49;2.80;;;2.60;;
9968;SDS011;5025;48.890;9.278;2022-11-15T01:35:14;3.03;;;2.83;;
9968;SDS011;5025;48.890;9.278;2022-11-15T01:37:40;3.23;;;2.93;;
9968;SDS011;5025;48.890;9.278;2022-11-15T01:40:05;3.33;;;3.10;;
9968;SDS011;5025;48.890;9.278;2022-11-15T01:42:30;3.63;;;3.33;;
9968;SDS011;5025;48.890;9.278;2022-11-15T01:44:56;4.17;;;3.77;;
9968;SDS011;5025;48.890;9.278;2022-11-15T01:47:23;3.70;;;3.40;;
9968;SDS011;5025;48.890;9.278;2022-11-15T01:50:03;3.60;;;3.30;;
9968;SDS011;5025;48.890;9.278;2022-11-15T01:52:32;4.30;;;3.80;;
9968;SDS011;5025;48.890;9.278;2022-11-15T01:57:25;3.10;;;2.90;;
9968;SDS011;5025;48.890;9.278;2022-11-15T01:59:50;3.30;;;3.00;;
9968;SDS011;5025;48.890;9.278;2022-11-15T02:02:16;3.40;;;3.20;;
9968;SDS011;5025;48.890;9.278;2022-11-15T02:04:45;3.60;;;3.33;;
9968;SDS011;5025;48.890;9.278;2022-11-15T02:07:13;4.23;;;3.60;;
9968;SDS011;5025;48.890;9.278;2022-11-15T02:09:42;3.80;;;3.47;;
9968;SDS011;5025;48.890;9.278;2022-11-15T02:12:09;4.70;;;3.90;;
9968;SDS011;5025;48.890;9.278;2022-11-15T02:14:35;4.33;;;3.67;;
9968;SDS011;5025;48.890;9.278;2022-11-15T02:19:53;3.70;;;3.40;;
9968;SDS011;5025;48.890;9.278;2022-11-15T02:28:14;3.57;;;3.27;;
9968;SDS011;5025;48.890;9.278;2022-11-15T02:36:02;3.70;;;3.40;;
9968;SDS011;5025;48.890;9.278;2022-11-15T02:41:38;3.40;;;3.10;;
9968;SDS011;5025;48.890;9.278;2022-11-15T02:44:08;3.90;;;3.60;;
9968;SDS011;5025;48.890;9.278;2022-11-15T02:46:45;4.23;;;3.80;;
9968;SDS011;5025;48.890;9.278;2022-11-15T02:49:34;3.63;;;3.30;;
9968;SDS011;5025;48.890;9.278;2022-11-15T02:52:00;3.60;;;3.13;;
9968;SDS011;5025;48.890;9.278;2022-11-15T02:54:28;3.43;;;3.23;;
9968;SDS011;5025;48.890;9.278;2022-11-15T02:56:57;4.10;;;3.70;;
9968;SDS011;5025;48.890;9.278;2022-11-15T03:07:51;4.07;;;3.30;;
9968;SDS011;5025;48.890;9.278;2022-11-15T03:10:26;4.30;;;3.90;;
9968;SDS011;5025;48.890;9.278;2022-11-15T03:13:12;3.93;;;3.60;;
9968;SDS011;5025;48.890;9.278;2022-11-15T03:16:08;4.00;;;3.70;;
9968;SDS011;5025;48.890;9.278;2022-11-15T03:18:38;4.60;;;3.80;;
9968;SDS011;5025;48.890;9.278;2022-11-15T03:21:09;3.57;;;3.27;;
9968;SDS011;5025;48.890;9.278;2022-11-15T03:23:37;3.83;;;3.53;;
9968;SDS011;5025;48.890;9.278;2022-11-15T03:26:05;3.50;;;3.20;;
9968;SDS011;5025;48.890;9.278;2022-11-15T03:28:37;3.63;;;3.27;;
9968;SDS011;5025;48.890;9.278;2022-11-15T03:31:07;3.13;;;2.93;;
9968;SDS011;5025;48.890;9.278;2022-11-15T03:33:55;3.40;;;3.10;;
9968;SDS011;5025;48.890;9.278;2022-11-15T03:36:23;3.80;;;3.47;;
9968;SDS011;5025;48.890;9.278;2022-11-15T03:38:50;3.93;;;3.53;;
9968;SDS011;5025;48.890;9.278;2022-11-15T03:41:22;3.90;;;3.60;;
9968;SDS011;5025;48.890;9.278;2022-11-15T03:43:54;3.97;;;3.47;;
9968;SDS011;5025;48.890;9.278;2022-11-15T03:48:54;4.23;;;3.73;;
9968;SDS011;5025;48.890;9.278;2022-11-15T03:51:28;5.23;;;4.37;;
9968;SDS011;5025;48.890;9.278;2022-11-15T03:53:54;4.50;;;4.10;;
9968;SDS011;5025;48.890;9.278;2022-11-15T03:56:20;4.30;;;3.90;;
9968;SDS011;5025;48.890;9.278;2022-11-15T03:58:45;4.07;;;3.67;;
9968;SDS011;5025;48.890;9.278;2022-11-15T04:01:10;5.07;;;4.57;;
9968;SDS011;5025;48.890;9.278;2022-11-15T04:03:36;5.07;;;4.57;;
9968;SDS011;5025;48.890;9.278;2022-11-15T04:06:01;5.87;;;5.00;;
9968;SDS011;5025;48.890;9.278;2022-11-15T04:08:26;4.73;;;4.30;;
9968;SDS011;5025;48.890;9.278;2022-11-15T04:10:51;4.37;;;3.97;;
9968;SDS011;5025;48.890;9.278;2022-11-15T04:13:17;5.20;;;4.40;;
9968;SDS011;5025;48.890;9.278;2022-11-15T04:15:42;3.90;;;3.60;;
9968;SDS011;5025;48.890;9.278;2022-11-15T04:18:07;4.70;;;4.23;;
9968;SDS011;5025;48.890;9.278;2022-11-15T04:20:33;4.00;;;3.67;;
9968;SDS011;5025;48.890;9.278;2022-11-15T04:23:21;4.60;;;4.20;;
9968;SDS011;5025;48.890;9.278;2022-11-15T04:26:16;4.87;;;4.37;;
9968;SDS011;5025;48.890;9.278;2022-11-15T04:28:43;6.23;;;5.13;;
9968;SDS011;5025;48.890;9.278;2022-11-15T04:31:28;4.97;;;4.57;;
9968;SDS011;5025;48.890;9.278;2022-11-15T04:33:53;5.03;;;4.63;;
9968;SDS011;5025;48.890;9.278;2022-11-15T04:36:19;5.67;;;5.13;;
9968;SDS011;5025;48.890;9.278;2022-11-15T04:39:03;5.60;;;4.93;;
9968;SDS011;5025;48.890;9.278;2022-11-15T04:41:29;5.20;;;4.77;;
9968;SDS011;5025;48.890;9.278;2022-11-15T04:43:54;6.20;;;5.00;;
9968;SDS011;5025;48.890;9.278;2022-11-15T04:46:20;6.23;;;5.10;;
9968;SDS011;5025;48.890;9.278;2022-11-15T04:48:46;7.13;;;5.40;;
9968;SDS011;5025;48.890;9.278;2022-11-15T04:51:11;5.70;;;5.20;;
9968;SDS011;5025;48.890;9.278;2022-11-15T04:53:37;5.90;;;5.30;;
9968;SDS011;5025;48.890;9.278;2022-11-15T04:56:02;6.00;;;4.63;;
9968;SDS011;5025;48.890;9.278;2022-11-15T04:58:27;5.30;;;4.80;;
9968;SDS011;5025;48.890;9.278;2022-11-15T05:00:53;5.57;;;4.97;;
9968;SDS011;5025;48.890;9.278;2022-11-15T05:03:18;5.07;;;4.57;;
9968;SDS011;5025;48.890;9.278;2022-11-15T05:06:02;4.93;;;4.53;;
9968;SDS011;5025;48.890;9.278;2022-11-15T05:08:27;4.93;;;4.53;;
9968;SDS011;5025;48.890;9.278;2022-11-15T05:10:53;5.13;;;4.73;;
9968;SDS011;5025;48.890;9.278;2022-11-15T05:13:18;6.03;;;5.03;;
9968;SDS011;5025;48.890;9.278;2022-11-15T05:15:43;5.80;;;5.27;;
9968;SDS011;5025;48.890;9.278;2022-11-15T05:18:09;10.67;;;7.93;;
9968;SDS011;5025;48.890;9.278;2022-11-15T05:20:35;22.63;;;17.90;;
9968;SDS011;5025;48.890;9.278;2022-11-15T05:23:00;18.33;;;14.37;;
9968;SDS011;5025;48.890;9.278;2022-11-15T05:25:25;20.87;;;15.53;;
9968;SDS011;5025;48.890;9.278;2022-11-15T05:27:51;28.90;;;19.73;;
9968;SDS011;5025;48.890;9.278;2022-11-15T05:30:17;31.17;;;20.50;;
9968;SDS011;5025;48.890;9.278;2022-11-15T05:32:42;24.10;;;17.10;;
9968;SDS011;5025;48.890;9.278;2022-11-15T05:35:09;21.17;;;15.83;;
9968;SDS011;5025;48.890;9.278;2022-11-15T05:37:40;23.40;;;15.70;;
9968;SDS011;5025;48.890;9.278;2022-11-15T05:40:06;22.60;;;16.43;;
9968;SDS011;5025;48.890;9.278;2022-11-15T05:42:31;29.83;;;20.43;;
9968;SDS011;5025;48.890;9.278;2022-11-15T05:44:57;36.50;;;24.63;;
9968;SDS011;5025;48.890;9.278;2022-11-15T05:47:24;63.00;;;38.73;;
9968;SDS011;5025;48.890;9.278;2022-11-15T05:49:54;43.50;;;29.37;;
9968;SDS011;5025;48.890;9.278;2022-11-15T05:52:21;29.80;;;21.27;;
9968;SDS011;5025;48.890;9.278;2022-11-15T05:54:50;17.37;;;11.93;;
9968;SDS011;5025;48.890;9.278;2022-11-15T05:57:17;13.70;;;10.20;;
9968;SDS011;5025;48.890;9.278;2022-11-15T05:59:43;10.57;;;8.50;;
9968;SDS011;5025;48.890;9.278;2022-11-15T06:02:09;7.87;;;6.60;;
9968;SDS011;5025;48.890;9.278;2022-11-15T06:04:35;6.47;;;5.77;;
9968;SDS011;5025;48.890;9.278;2022-11-15T06:07:01;6.67;;;5.73;;
9968;SDS011;5025;48.890;9.278;2022-11-15T06:09:26;5.30;;;4.70;;
9968;SDS011;5025;48.890;9.278;2022-11-15T06:11:51;5.10;;;4.23;;
9968;SDS011;5025;48.890;9.278;2022-11-15T06:14:17;4.87;;;4.47;;
9968;SDS011;5025;48.890;9.278;2022-11-15T06:16:43;4.60;;;4.20;;
9968;SDS011;5025;48.890;9.278;2022-11-15T06:19:08;4.87;;;4.07;;
9968;SDS011;5025;48.890;9.278;2022-11-15T06:21:33;4.47;;;4.07;;
9968;SDS011;5025;48.890;9.278;2022-11-15T06:23:59;5.00;;;3.80;;
9968;SDS011;5025;48.890;9.278;2022-11-15T06:26:24;3.67;;;3.37;;
9968;SDS011;5025;48.890;9.278;2022-11-15T06:28:49;4.07;;;3.77;;
9968;SDS011;5025;48.890;9.278;2022-11-15T06:31:15;4.47;;;4.07;;
9968;SDS011;5025;48.890;9.278;2022-11-15T06:33:40;5.37;;;4.50;;
9968;SDS011;5025;48.890;9.278;2022-11-15T06:36:07;7.43;;;6.63;;
9968;SDS011;5025;48.890;9.278;2022-11-15T06:38:34;6.33;;;5.80;;
9968;SDS011;5025;48.890;9.278;2022-11-15T06:41:03;5.40;;;4.90;;
9968;SDS011;5025;48.890;9.278;2022-11-15T06:43:30;5.30;;;4.80;;
9968;SDS011;5025;48.890;9.278;2022-11-15T06:45:59;6.00;;;5.17;;
9968;SDS011;5025;48.890;9.278;2022-11-15T06:48:25;5.20;;;4.70;;
9968;SDS011;5025;48.890;9.278;2022-11-15T06:50:52;5.80;;;5.30;;
9968;SDS011;5025;48.890;9.278;2022-11-15T06:53:18;5.03;;;4.63;;
9968;SDS011;5025;48.890;9.278;2022-11-15T06:55:43;5.30;;;4.80;;
9968;SDS011;5025;48.890;9.278;2022-11-15T06:58:08;5.13;;;4.73;;
9968;SDS011;5025;48.890;9.278;2022-11-15T07:00:34;5.20;;;4.70;;
9968;SDS011;5025;48.890;9.278;2022-11-15T07:02:59;4.27;;;3.97;;
9968;SDS011;5025;48.890;9.278;2022-11-15T07:05:26;4.50;;;4.10;;
9968;SDS011;5025;48.890;9.278;2022-11-15T07:07:55;4.93;;;4.27;;
9968;SDS011;5025;48.890;9.278;2022-11-15T07:10:22;4.40;;;4.00;;
9968;SDS011;5025;48.890;9.278;2022-11-15T07:12:49;4.63;;;4.23;;
9968;SDS011;5025;48.890;9.278;2022-11-15T07:15:17;4.47;;;4.17;;
9968;SDS011;5025;48.890;9.278;2022-11-15T07:17:43;5.27;;;4.80;;
9968;SDS011;5025;48.890;9.278;2022-11-15T07:20:09;4.87;;;4.20;;
9968;SDS011;5025;48.890;9.278;2022-11-15T07:22:35;4.97;;;4.20;;
9968;SDS011;5025;48.890;9.278;2022-11-15T07:25:01;4.70;;;4.17;;
9968;SDS011;5025;48.890;9.278;2022-11-15T07:27:26;4.50;;;4.10;;
9968;SDS011;5025;48.890;9.278;2022-11-15T07:29:51;4.37;;;3.83;;
9968;SDS011;5025;48.890;9.278;2022-11-15T07:32:17;4.27;;;3.97;;
9968;SDS011;5025;48.890;9.278;2022-11-15T07:34:42;4.40;;;4.00;;
9968;SDS011;5025;48.890;9.278;2022-11-15T07:37:07;4.73;;;4.33;;
9968;SDS011;5025;48.890;9.278;2022-11-15T07:39:33;4.37;;;3.93;;
9968;SDS011;5025;48.890;9.278;2022-11-15T07:41:58;4.60;;;4.20;;
9968;SDS011;5025;48.890;9.278;2022-11-15T07:44:43;4.40;;;4.00;;
9968;SDS011;5025;48.890;9.278;2022-11-15T07:47:08;4.60;;;4.20;;
9968;SDS011;5025;48.890;9.278;2022-11-15T07:49:33;4.40;;;4.00;;
9968;SDS011;5025;48.890;9.278;2022-11-15T07:51:58;4.67;;;4.27;;
9968;SDS011;5025;48.890;9.278;2022-11-15T07:54:24;4.20;;;3.90;;
9968;SDS011;5025;48.890;9.278;2022-11-15T07:56:49;4.60;;;4.17;;
9968;SDS011;5025;48.890;9.278;2022-11-15T07:59:14;4.43;;;4.00;;
9968;SDS011;5025;48.890;9.278;2022-11-15T08:01:40;4.87;;;4.43;;
9968;SDS011;5025;48.890;9.278;2022-11-15T08:04:05;5.23;;;4.63;;
9968;SDS011;5025;48.890;9.278;2022-11-15T08:06:34;4.60;;;4.07;;
9968;SDS011;5025;48.890;9.278;2022-11-15T08:09:00;4.37;;;4.07;;
9968;SDS011;5025;48.890;9.278;2022-11-15T08:11:25;4.10;;;3.80;;
9968;SDS011;5025;48.890;9.278;2022-11-15T08:13:50;5.20;;;4.70;;
9968;SDS011;5025;48.890;9.278;2022-11-15T08:16:16;4.97;;;4.57;;
9968;SDS011;5025;48.890;9.278;2022-11-15T08:18:41;4.60;;;4.20;;
9968;SDS011;5025;48.890;9.278;2022-11-15T08:21:08;4.53;;;4.13;;
9968;SDS011;5025;48.890;9.278;2022-11-15T08:23:34;5.23;;;4.77;;
9968;SDS011;5025;48.890;9.278;2022-11-15T08:26:03;5.07;;;4.60;;
9968;SDS011;5025;48.890;9.278;2022-11-15T08:28:29;4.60;;;4.20;;
9968;SDS011;5025;48.890;9.278;2022-11-15T08:30:56;5.40;;;4.90;;
9968;SDS011;5025;48.890;9.278;2022-11-15T08:33:21;5.60;;;4.57;;
9968;SDS011;5025;48.890;9.278;2022-11-15T08:35:47;5.00;;;4.60;;
9968;SDS011;5025;48.890;9.278;2022-11-15T08:38:13;4.87;;;4.40;;
9968;SDS011;5025;48.890;9.278;2022-11-15T08:40:38;5.00;;;4.60;;
9968;SDS011;5025;48.890;9.278;2022-11-15T08:43:03;4.23;;;3.93;;
9968;SDS011;5025;48.890;9.278;2022-11-15T08:45:29;3.90;;;3.60;;
9968;SDS011;5025;48.890;9.278;2022-11-15T08:47:55;3.50;;;3.20;;
9968;SDS011;5025;48.890;9.278;2022-11-15T08:50:21;3.83;;;3.53;;
9968;SDS011;5025;48.890;9.278;2022-11-15T08:52:46;4.30;;;3.90;;
9968;SDS011;5025;48.890;9.278;2022-11-15T08:55:13;3.50;;;3.27;;
9968;SDS011;5025;48.890;9.278;2022-11-15T08:57:38;3.80;;;3.50;;
9968;SDS011;5025;48.890;9.278;2022-11-15T09:00:04;4.43;;;4.03;;
9968;SDS011;5025;48.890;9.278;2022-11-15T09:02:30;4.00;;;3.60;;
9968;SDS011;5025;48.890;9.278;2022-11-15T09:04:56;4.60;;;4.23;;
9968;SDS011;5025;48.890;9.278;2022-11-15T09:07:21;4.10;;;3.80;;
9968;SDS011;5025;48.890;9.278;2022-11-15T09:09:46;5.23;;;4.73;;
9968;SDS011;5025;48.890;9.278;2022-11-15T09:12:12;6.03;;;5.20;;
9968;SDS011;5025;48.890;9.278;2022-11-15T09:14:37;6.23;;;5.70;;
9968;SDS011;5025;48.890;9.278;2022-11-15T09:17:03;5.80;;;5.23;;
9968;SDS011;5025;48.890;9.278;2022-11-15T09:19:28;7.13;;;5.23;;
9968;SDS011;5025;48.890;9.278;2022-11-15T09:21:54;7.57;;;5.90;;
9968;SDS011;5025;48.890;9.278;2022-11-15T09:24:19;6.03;;;5.40;;
9968;SDS011;5025;48.890;9.278;2022-11-15T09:26:45;5.97;;;5.20;;
9968;SDS011;5025;48.890;9.278;2022-11-15T09:29:10;6.17;;;4.63;;
9968;SDS011;5025;48.890;9.278;2022-11-15T09:31:35;4.73;;;4.23;;
9968;SDS011;5025;48.890;9.278;2022-11-15T09:34:01;6.23;;;4.40;;
9968;SDS011;5025;48.890;9.278;2022-11-15T09:36:26;4.33;;;4.00;;
9968;SDS011;5025;48.890;9.278;2022-11-15T09:38:52;4.77;;;4.37;;
9968;SDS011;5025;48.890;9.278;2022-11-15T09:44:22;4.70;;;4.20;;
9968;SDS011;5025;48.890;9.278;2022-11-15T09:47:00;4.67;;;4.27;;
9968;SDS011;5025;48.890;9.278;2022-11-15T09:49:29;4.40;;;4.00;;
9968;SDS011;5025;48.890;9.278;2022-11-15T09:51:56;3.90;;;3.60;;
9968;SDS011;5025;48.890;9.278;2022-11-15T09:54:32;4.40;;;3.70;;
9968;SDS011;5025;48.890;9.278;2022-11-15T09:57:06;4.03;;;3.67;;
9968;SDS011;5025;48.890;9.278;2022-11-15T10:05:01;3.80;;;3.50;;
9968;SDS011;5025;48.890;9.278;2022-11-15T10:10:04;3.47;;;3.23;;
9968;SDS011;5025;48.890;9.278;2022-11-15T10:12:35;3.40;;;3.20;;
9968;SDS011;5025;48.890;9.278;2022-11-15T10:15:02;4.00;;;3.50;;
9968;SDS011;5025;48.890;9.278;2022-11-15T10:20:34;3.17;;;2.97;;
9968;SDS011;5025;48.890;9.278;2022-11-15T10:23:11;2.80;;;2.60;;
9968;SDS011;5025;48.890;9.278;2022-11-15T10:25:39;2.63;;;2.53;;
9968;SDS011;5025;48.890;9.278;2022-11-15T10:30:47;2.90;;;2.70;;
9968;SDS011;5025;48.890;9.278;2022-11-15T10:41:22;2.60;;;2.40;;
9968;SDS011;5025;48.890;9.278;2022-11-15T10:46:32;2.53;;;2.33;;
9968;SDS011;5025;48.890;9.278;2022-11-15T10:49:18;2.43;;;2.30;;
9968;SDS011;5025;48.890;9.278;2022-11-15T10:51:49;2.53;;;2.33;;
9968;SDS011;5025;48.890;9.278;2022-11-15T10:57:16;2.20;;;2.10;;
9968;SDS011;5025;48.890;9.278;2022-11-15T11:00:26;2.30;;;2.10;;
9968;SDS011;5025;48.890;9.278;2022-11-15T11:05:39;2.93;;;2.73;;
9968;SDS011;5025;48.890;9.278;2022-11-15T11:10:36;2.80;;;2.60;;
9968;SDS011;5025;48.890;9.278;2022-11-15T11:13:15;2.83;;;2.63;;
9968;SDS011;5025;48.890;9.278;2022-11-15T11:15:51;2.50;;;2.40;;
9968;SDS011;5025;48.890;9.278;2022-11-15T11:18:34;2.57;;;2.37;;
9968;SDS011;5025;48.890;9.278;2022-11-15T11:21:18;2.80;;;2.60;;
9968;SDS011;5025;48.890;9.278;2022-11-15T11:26:42;2.83;;;2.63;;
9968;SDS011;5025;48.890;9.278;2022-11-15T11:29:47;3.20;;;2.93;;
9968;SDS011;5025;48.890;9.278;2022-11-15T11:37:33;2.93;;;2.73;;
9968;SDS011;5025;48.890;9.278;2022-11-15T11:40:25;2.90;;;2.70;;
9968;SDS011;5025;48.890;9.278;2022-11-15T11:50:50;2.90;;;2.70;;
9968;SDS011;5025;48.890;9.278;2022-11-15T11:53:29;2.73;;;2.53;;
9968;SDS011;5025;48.890;9.278;2022-11-15T11:56:18;2.67;;;2.47;;
9968;SDS011;5025;48.890;9.278;2022-11-15T11:58:52;2.30;;;2.20;;
9968;SDS011;5025;48.890;9.278;2022-11-15T12:02:02;2.50;;;2.33;;
9968;SDS011;5025;48.890;9.278;2022-11-15T12:04:11;2.97;;;2.67;;
9968;SDS011;5025;48.890;9.278;2022-11-15T12:06:42;2.40;;;2.30;;
9968;SDS011;5025;48.890;9.278;2022-11-15T12:09:44;2.60;;;2.40;;
9968;SDS011;5025;48.890;9.278;2022-11-15T12:15:15;4.93;;;2.73;;
9968;SDS011;5025;48.890;9.278;2022-11-15T12:17:43;2.70;;;2.50;;
9968;SDS011;5025;48.890;9.278;2022-11-15T12:20:14;2.50;;;2.30;;
9968;SDS011;5025;48.890;9.278;2022-11-15T12:31:16;2.67;;;2.47;;
9968;SDS011;5025;48.890;9.278;2022-11-15T12:33:48;2.10;;;2.00;;
9968;SDS011;5025;48.890;9.278;2022-11-15T12:38:50;2.33;;;2.20;;
9968;SDS011;5025;48.890;9.278;2022-11-15T12:41:20;2.30;;;2.20;;
9968;SDS011;5025;48.890;9.278;2022-11-15T12:43:47;2.27;;;2.13;;
9968;SDS011;5025;48.890;9.278;2022-11-15T12:49:00;3.73;;;2.90;;
9968;SDS011;5025;48.890;9.278;2022-11-15T13:17:56;1.80;;;1.70;;
9968;SDS011;5025;48.890;9.278;2022-11-15T13:20:26;1.97;;;1.80;;
9968;SDS011;5025;48.890;9.278;2022-11-15T13:28:47;2.00;;;1.90;;
9968;SDS011;5025;48.890;9.278;2022-11-15T13:30:54;2.23;;;2.03;;
9968;SDS011;5025;48.890;9.278;2022-11-15T13:35:47;2.83;;;2.50;;
9968;SDS011;5025;48.890;9.278;2022-11-15T13:38:26;3.13;;;2.83;;
9968;SDS011;5025;48.890;9.278;2022-11-15T13:40:57;4.13;;;3.50;;
9968;SDS011;5025;48.890;9.278;2022-11-15T13:43:28;3.60;;;3.30;;
9968;SDS011;5025;48.890;9.278;2022-11-15T13:48:45;4.30;;;3.00;;
9968;SDS011;5025;48.890;9.278;2022-11-15T13:53:49;3.70;;;3.40;;
9968;SDS011;5025;48.890;9.278;2022-11-15T13:56:19;3.37;;;3.07;;
9968;SDS011;5025;48.890;9.278;2022-11-15T13:58:45;3.10;;;2.67;;
9968;SDS011;5025;48.890;9.278;2022-11-15T14:01:18;3.67;;;2.70;;
9968;SDS011;5025;48.890;9.278;2022-11-15T14:03:55;2.97;;;2.67;;
9968;SDS011;5025;48.890;9.278;2022-11-15T14:06:23;3.13;;;2.50;;
9968;SDS011;5025;48.890;9.278;2022-11-15T14:08:59;2.50;;;2.30;;
9968;SDS011;5025;48.890;9.278;2022-11-15T14:11:34;3.03;;;2.17;;
9968;SDS011;5025;48.890;9.278;2022-11-15T14:16:35;2.33;;;2.20;;
9968;SDS011;5025;48.890;9.278;2022-11-15T14:19:01;2.10;;;2.00;;
9968;SDS011;5025;48.890;9.278;2022-11-15T14:21:27;2.40;;;2.20;;
9968;SDS011;5025;48.890;9.278;2022-11-15T14:23:52;2.40;;;2.20;;
9968;SDS011;5025;48.890;9.278;2022-11-15T14:26:31;3.60;;;2.70;;
9968;SDS011;5025;48.890;9.278;2022-11-15T14:31:51;6.33;;;4.00;;
9968;SDS011;5025;48.890;9.278;2022-11-15T14:34:17;4.97;;;3.40;;
9968;SDS011;5025;48.890;9.278;2022-11-15T14:36:43;3.10;;;2.73;;
9968;SDS011;5025;48.890;9.278;2022-11-15T14:39:09;4.27;;;3.20;;
9968;SDS011;5025;48.890;9.278;2022-11-15T14:41:35;2.90;;;2.70;;
9968;SDS011;5025;48.890;9.278;2022-11-15T14:44:04;2.97;;;2.63;;
9968;SDS011;5025;48.890;9.278;2022-11-15T14:46:30;3.43;;;2.53;;
9968;SDS011;5025;48.890;9.278;2022-11-15T14:48:56;2.70;;;2.50;;
9968;SDS011;5025;48.890;9.278;2022-11-15T14:51:21;2.90;;;2.70;;
9968;SDS011;5025;48.890;9.278;2022-11-15T14:53:46;2.80;;;2.60;;
9968;SDS011;5025;48.890;9.278;2022-11-15T14:56:13;2.90;;;2.70;;
9968;SDS011;5025;48.890;9.278;2022-11-15T14:58:38;2.10;;;2.00;;
9968;SDS011;5025;48.890;9.278;2022-11-15T15:01:10;3.00;;;2.70;;
9968;SDS011;5025;48.890;9.278;2022-11-15T15:03:38;2.90;;;2.60;;
9968;SDS011;5025;48.890;9.278;2022-11-15T15:06:04;2.70;;;2.50;;
9968;SDS011;5025;48.890;9.278;2022-11-15T15:08:29;2.70;;;2.50;;
9968;SDS011;5025;48.890;9.278;2022-11-15T15:10:55;2.53;;;2.40;;
9968;SDS011;5025;48.890;9.278;2022-11-15T15:13:21;2.90;;;2.70;;
9968;SDS011;5025;48.890;9.278;2022-11-15T15:15:48;2.27;;;2.13;;
9968;SDS011;5025;48.890;9.278;2022-11-15T15:18:15;2.20;;;2.10;;
9968;SDS011;5025;48.890;9.278;2022-11-15T15:20:41;2.37;;;2.17;;
9968;SDS011;5025;48.890;9.278;2022-11-15T15:23:13;2.70;;;2.50;;
9968;SDS011;5025;48.890;9.278;2022-11-15T15:25:40;2.03;;;1.93;;
9968;SDS011;5025;48.890;9.278;2022-11-15T15:28:06;2.20;;;2.10;;
9968;SDS011;5025;48.890;9.278;2022-11-15T15:30:32;2.43;;;2.33;;
9968;SDS011;5025;48.890;9.278;2022-11-15T15:32:57;3.00;;;2.80;;
9968;SDS011;5025;48.890;9.278;2022-11-15T15:35:23;7.83;;;6.07;;
9968;SDS011;5025;48.890;9.278;2022-11-15T15:37:51;5.90;;;5.20;;
9968;SDS011;5025;48.890;9.278;2022-11-15T15:40:17;4.10;;;3.70;;
9968;SDS011;5025;48.890;9.278;2022-11-15T15:42:45;3.87;;;3.57;;
9968;SDS011;5025;48.890;9.278;2022-11-15T15:45:11;3.57;;;3.27;;
9968;SDS011;5025;48.890;9.278;2022-11-15T15:47:37;3.60;;;3.30;;
9968;SDS011;5025;48.890;9.278;2022-11-15T15:50:03;3.17;;;2.97;;
9968;SDS011;5025;48.890;9.278;2022-11-15T15:52:36;3.13;;;2.83;;
9968;SDS011;5025;48.890;9.278;2022-11-15T15:55:02;2.70;;;2.60;;
9968;SDS011;5025;48.890;9.278;2022-11-15T15:57:27;2.73;;;2.53;;
9968;SDS011;5025;48.890;9.278;2022-11-15T15:59:55;3.10;;;2.90;;
9968;SDS011;5025;48.890;9.278;2022-11-15T16:02:26;4.50;;;4.10;;
9968;SDS011;5025;48.890;9.278;2022-11-15T16:07:34;3.80;;;3.50;;
9968;SDS011;5025;48.890;9.278;2022-11-15T16:10:13;5.17;;;4.77;;
9968;SDS011;5025;48.890;9.278;2022-11-15T16:12:45;5.07;;;4.57;;
9968;SDS011;5025;48.890;9.278;2022-11-15T16:15:11;5.17;;;4.50;;
9968;SDS011;5025;48.890;9.278;2022-11-15T16:17:46;4.10;;;3.80;;
9968;SDS011;5025;48.890;9.278;2022-11-15T16:20:22;4.20;;;3.90;;
9968;SDS011;5025;48.890;9.278;2022-11-15T16:22:54;4.33;;;3.93;;
9968;SDS011;5025;48.890;9.278;2022-11-15T16:25:26;4.13;;;3.77;;
9968;SDS011;5025;48.890;9.278;2022-11-15T16:27:54;3.90;;;3.60;;
9968;SDS011;5025;48.890;9.278;2022-11-15T16:30:23;4.93;;;4.53;;
9968;SDS011;5025;48.890;9.278;2022-11-15T16:32:55;4.80;;;4.40;;
9968;SDS011;5025;48.890;9.278;2022-11-15T16:35:30;3.93;;;3.63;;
9968;SDS011;5025;48.890;9.278;2022-11-15T16:37:59;4.00;;;3.70;;
9968;SDS011;5025;48.890;9.278;2022-11-15T16:40:36;4.40;;;4.00;;
9968;SDS011;5025;48.890;9.278;2022-11-15T16:43:17;4.00;;;3.67;;
9968;SDS011;5025;48.890;9.278;2022-11-15T16:45:46;3.90;;;3.60;;
9968;SDS011;5025;48.890;9.278;2022-11-15T16:48:22;3.80;;;3.37;;
9968;SDS011;5025;48.890;9.278;2022-11-15T16:51:04;3.60;;;3.30;;
9968;SDS011;5025;48.890;9.278;2022-11-15T16:53:33;3.50;;;3.20;;
9968;SDS011;5025;48.890;9.278;2022-11-15T16:56:01;3.27;;;3.07;;
9968;SDS011;5025;48.890;9.278;2022-11-15T16:58:54;3.40;;;3.20;;
9968;SDS011;5025;48.890;9.278;2022-11-15T17:01:33;3.53;;;3.20;;
9968;SDS011;5025;48.890;9.278;2022-11-15T17:04:23;3.30;;;3.00;;
9968;SDS011;5025;48.890;9.278;2022-11-15T17:06:48;3.00;;;2.80;;
9968;SDS011;5025;48.890;9.278;2022-11-15T17:09:16;3.13;;;2.73;;
9968;SDS011;5025;48.890;9.278;2022-11-15T17:11:48;2.67;;;2.40;;
9968;SDS011;5025;48.890;9.278;2022-11-15T17:16:58;2.67;;;2.47;;
9968;SDS011;5025;48.890;9.278;2022-11-15T17:19:37;2.83;;;2.63;;
9968;SDS011;5025;48.890;9.278;2022-11-15T17:22:12;2.63;;;2.43;;
9968;SDS011;5025;48.890;9.278;2022-11-15T17:24:38;2.50;;;2.30;;
9968;SDS011;5025;48.890;9.278;2022-11-15T17:27:03;2.33;;;2.23;;
9968;SDS011;5025;48.890;9.278;2022-11-15T17:29:28;2.27;;;2.13;;
9968;SDS011;5025;48.890;9.278;2022-11-15T17:31:54;2.50;;;2.30;;
9968;SDS011;5025;48.890;9.278;2022-11-15T17:34:19;2.30;;;2.20;;
9968;SDS011;5025;48.890;9.278;2022-11-15T17:36:45;3.50;;;2.40;;
9968;SDS011;5025;48.890;9.278;2022-11-15T17:39:12;2.83;;;2.60;;
9968;SDS011;5025;48.890;9.278;2022-11-15T17:41:37;3.20;;;3.00;;
9968;SDS011;5025;48.890;9.278;2022-11-15T17:44:03;3.10;;;2.90;;
9968;SDS011;5025;48.890;9.278;2022-11-15T17:46:28;3.37;;;3.17;;
9968;SDS011;5025;48.890;9.278;2022-11-15T17:48:54;2.60;;;2.40;;
9968;SDS011;5025;48.890;9.278;2022-11-15T17:51:20;2.57;;;2.47;;
9968;SDS011;5025;48.890;9.278;2022-11-15T17:53:47;2.67;;;2.57;;